sensor_id;sensor_type;location;lat;lon;timestamp;pressure;altitude;pressure_sealevel;temperature;humidity
32109;BME280;18624;50.042;8.436;2023-03-01T00:01:04;101597.16;;;0.81;67.89
32109;BME280;18624;50.042;8.436;2023-03-01T00:03:31;101637.63;;;1.01;67.63
32109;BME280;18624;50.042;8.436;2023-03-01T00:05:58;101633.13;;;1.06;67.42
32109;BME280;18624;50.042;8.436;2023-03-01T00:08:25;101642.81;;;1.07;67.84
32109;BME280;18624;50.042;8.436;2023-03-01T00:11:08;101637.97;;;1.00;67.68
32109;BME280;18624;50.042;8.436;2023-03-01T00:13:35;101643.81;;;1.02;67.65
32109;BME280;18624;50.042;8.436;2023-03-01T00:16:07;101640.78;;;1.04;67.72
32109;BME280;18624;50.042;8.436;2023-03-01T00:18:34;101633.78;;;1.02;67.80
32109;BME280;18624;50.042;8.436;2023-03-01T00:21:01;101642.38;;;1.05;67.71
32109;BME280;18624;50.042;8.436;2023-03-01T00:23:27;101643.03;;;1.01;67.75
32109;BME280;18624;50.042;8.436;2023-03-01T00:25:54;101639.97;;;1.03;67.66
32109;BME280;18624;50.042;8.436;2023-03-01T00:28:21;101620.28;;;0.90;68.28
32109;BME280;18624;50.042;8.436;2023-03-01T00:30:47;101636.00;;;0.88;68.28
32109;BME280;18624;50.042;8.436;2023-03-01T00:33:14;101630.94;;;0.87;68.53
32109;BME280;18624;50.042;8.436;2023-03-01T00:35:41;101632.16;;;0.89;68.69
32109;BME280;18624;50.042;8.436;2023-03-01T00:38:08;101627.47;;;0.86;68.44
32109;BME280;18624;50.042;8.436;2023-03-01T00:40:35;101622.38;;;0.85;68.86
32109;BME280;18624;50.042;8.436;2023-03-01T00:43:03;101617.75;;;0.85;68.57
32109;BME280;18624;50.042;8.436;2023-03-01T00:45:30;101621.59;;;0.84;68.82
32109;BME280;18624;50.042;8.436;2023-03-01T00:47:57;101623.16;;;0.85;68.94
32109;BME280;18624;50.042;8.436;2023-03-01T00:50:24;101611.25;;;0.86;69.15
32109;BME280;18624;50.042;8.436;2023-03-01T00:52:54;101608.56;;;0.86;68.88
32109;BME280;18624;50.042;8.436;2023-03-01T00:55:21;101588.75;;;0.82;69.04
32109;BME280;18624;50.042;8.436;2023-03-01T00:57:48;101609.78;;;0.89;69.20
32109;BME280;18624;50.042;8.436;2023-03-01T01:00:14;101595.97;;;0.90;69.53
32109;BME280;18624;50.042;8.436;2023-03-01T01:02:41;101589.44;;;0.91;69.42
32109;BME280;18624;50.042;8.436;2023-03-01T01:05:07;101604.06;;;0.90;69.38
32109;BME280;18624;50.042;8.436;2023-03-01T01:07:34;101595.97;;;0.90;69.63
32109;BME280;18624;50.042;8.436;2023-03-01T01:10:01;101596.28;;;0.89;69.70
32109;BME280;18624;50.042;8.436;2023-03-01T01:12:27;101598.56;;;0.87;69.48
32109;BME280;18624;50.042;8.436;2023-03-01T01:14:54;101571.72;;;0.69;70.04
32109;BME280;18624;50.042;8.436;2023-03-01T01:17:20;101590.31;;;0.83;70.27
32109;BME280;18624;50.042;8.436;2023-03-01T01:19:47;101545.16;;;0.59;70.21
32109;BME280;18624;50.042;8.436;2023-03-01T01:22:13;101584.59;;;0.85;70.34
32109;BME280;18624;50.042;8.436;2023-03-01T01:24:40;101573.00;;;0.84;70.32
32109;BME280;18624;50.042;8.436;2023-03-01T01:27:06;101574.91;;;0.84;70.11
32109;BME280;18624;50.042;8.436;2023-03-01T01:29:33;101566.25;;;0.78;70.40
32109;BME280;18624;50.042;8.436;2023-03-01T01:32:00;101557.50;;;0.81;70.80
32109;BME280;18624;50.042;8.436;2023-03-01T01:34:26;101554.78;;;0.81;71.22
32109;BME280;18624;50.042;8.436;2023-03-01T01:36:53;101553.19;;;0.80;70.96
32109;BME280;18624;50.042;8.436;2023-03-01T01:39:21;101540.47;;;0.81;70.58
32109;BME280;18624;50.042;8.436;2023-03-01T01:41:48;101536.69;;;0.82;70.79
32109;BME280;18624;50.042;8.436;2023-03-01T01:44:26;101537.00;;;0.80;71.13
32109;BME280;18624;50.042;8.436;2023-03-01T01:46:54;101538.59;;;0.81;70.93
32109;BME280;18624;50.042;8.436;2023-03-01T01:49:32;101539.38;;;0.82;71.26
32109;BME280;18624;50.042;8.436;2023-03-01T01:54:53;101552.53;;;0.83;71.24
32109;BME280;18624;50.042;8.436;2023-03-01T01:57:26;101548.25;;;0.82;70.53
32109;BME280;18624;50.042;8.436;2023-03-01T01:59:58;101502.19;;;0.54;70.56
32109;BME280;18624;50.042;8.436;2023-03-01T02:02:26;101547.56;;;0.85;71.00
32109;BME280;18624;50.042;8.436;2023-03-01T02:05:01;101551.41;;;0.84;70.70
32109;BME280;18624;50.042;8.436;2023-03-01T02:07:30;101543.06;;;0.77;70.24
32109;BME280;18624;50.042;8.436;2023-03-01T02:10:03;101549.25;;;0.78;70.80
32109;BME280;18624;50.042;8.436;2023-03-01T02:12:30;101557.50;;;0.81;70.64
32109;BME280;18624;50.042;8.436;2023-03-01T02:14:56;101556.88;;;0.75;70.17
32109;BME280;18624;50.042;8.436;2023-03-01T02:17:24;101549.78;;;0.71;70.60
32109;BME280;18624;50.042;8.436;2023-03-01T02:22:37;101545.25;;;0.63;70.92
32109;BME280;18624;50.042;8.436;2023-03-01T02:28:05;101547.06;;;0.59;71.22
32109;BME280;18624;50.042;8.436;2023-03-01T02:30:34;101536.06;;;0.64;71.18
32109;BME280;18624;50.042;8.436;2023-03-01T02:33:03;101540.69;;;0.63;70.70
32109;BME280;18624;50.042;8.436;2023-03-01T02:35:38;101531.47;;;0.64;70.71
32109;BME280;18624;50.042;8.436;2023-03-01T02:38:07;101534.59;;;0.66;70.94
32109;BME280;18624;50.042;8.436;2023-03-01T02:40:35;101527.97;;;0.64;71.32
32109;BME280;18624;50.042;8.436;2023-03-01T02:43:08;101518.28;;;0.63;71.24
32109;BME280;18624;50.042;8.436;2023-03-01T02:45:36;101512.22;;;0.66;71.12
32109;BME280;18624;50.042;8.436;2023-03-01T02:48:03;101508.75;;;0.65;70.88
32109;BME280;18624;50.042;8.436;2023-03-01T02:53:13;101496.94;;;0.70;71.00
32109;BME280;18624;50.042;8.436;2023-03-01T02:55:41;101483.53;;;0.61;70.64
32109;BME280;18624;50.042;8.436;2023-03-01T02:58:08;101500.09;;;0.72;70.60
32109;BME280;18624;50.042;8.436;2023-03-01T03:00:37;101495.38;;;0.69;70.56
32109;BME280;18624;50.042;8.436;2023-03-01T03:03:06;101497.72;;;0.70;70.41
32109;BME280;18624;50.042;8.436;2023-03-01T03:05:33;101492.91;;;0.64;70.82
32109;BME280;18624;50.042;8.436;2023-03-01T03:08:01;101487.50;;;0.64;70.91
32109;BME280;18624;50.042;8.436;2023-03-01T03:10:35;101485.91;;;0.63;70.64
32109;BME280;18624;50.042;8.436;2023-03-01T03:13:08;101477.38;;;0.61;70.79
32109;BME280;18624;50.042;8.436;2023-03-01T03:15:36;101470.41;;;0.60;70.79
32109;BME280;18624;50.042;8.436;2023-03-01T03:18:07;101471.97;;;0.61;71.21
32109;BME280;18624;50.042;8.436;2023-03-01T03:20:33;101473.66;;;0.65;71.01
32109;BME280;18624;50.042;8.436;2023-03-01T03:23:00;101471.31;;;0.64;70.56
32109;BME280;18624;50.042;8.436;2023-03-01T03:25:28;101472.41;;;0.63;71.12
32109;BME280;18624;50.042;8.436;2023-03-01T03:27:55;101469.47;;;0.56;70.95
32109;BME280;18624;50.042;8.436;2023-03-01T03:30:28;101457.13;;;0.55;71.48
32109;BME280;18624;50.042;8.436;2023-03-01T03:32:56;101463.09;;;0.60;70.99
32109;BME280;18624;50.042;8.436;2023-03-01T03:35:26;101461.38;;;0.56;70.86
32109;BME280;18624;50.042;8.436;2023-03-01T03:37:54;101465.22;;;0.55;71.05
32109;BME280;18624;50.042;8.436;2023-03-01T03:40:38;101452.63;;;0.59;71.16
32109;BME280;18624;50.042;8.436;2023-03-01T03:43:07;101457.69;;;0.60;70.46
32109;BME280;18624;50.042;8.436;2023-03-01T03:45:35;101456.91;;;0.60;70.79
32109;BME280;18624;50.042;8.436;2023-03-01T03:48:04;101447.81;;;0.64;70.82
32109;BME280;18624;50.042;8.436;2023-03-01T03:50:32;101449.03;;;0.67;70.46
32109;BME280;18624;50.042;8.436;2023-03-01T03:53:03;101439.94;;;0.71;70.60
32109;BME280;18624;50.042;8.436;2023-03-01T03:55:31;101441.41;;;0.69;70.05
32109;BME280;18624;50.042;8.436;2023-03-01T03:58:01;101444.88;;;0.69;70.48
32109;BME280;18624;50.042;8.436;2023-03-01T04:00:35;101444.41;;;0.67;70.36
32109;BME280;18624;50.042;8.436;2023-03-01T04:03:02;101441.72;;;0.67;70.56
32109;BME280;18624;50.042;8.436;2023-03-01T04:05:29;101444.41;;;0.67;70.57
32109;BME280;18624;50.042;8.436;2023-03-01T04:07:56;101454.56;;;0.70;70.31
32109;BME280;18624;50.042;8.436;2023-03-01T04:10:31;101445.00;;;0.73;69.93
32109;BME280;18624;50.042;8.436;2023-03-01T04:12:58;101441.84;;;0.71;70.06
32109;BME280;18624;50.042;8.436;2023-03-01T04:15:26;101447.59;;;0.69;70.37
32109;BME280;18624;50.042;8.436;2023-03-01T04:17:54;101449.03;;;0.67;70.07
32109;BME280;18624;50.042;8.436;2023-03-01T04:20:25;101447.81;;;0.64;70.62
32109;BME280;18624;50.042;8.436;2023-03-01T04:25:52;101446.44;;;0.58;70.91
32109;BME280;18624;50.042;8.436;2023-03-01T04:28:35;101443.25;;;0.44;71.21
32109;BME280;18624;50.042;8.436;2023-03-01T04:31:10;101436.06;;;0.48;70.99
32109;BME280;18624;50.042;8.436;2023-03-01T04:33:53;101445.50;;;0.42;72.02
32109;BME280;18624;50.042;8.436;2023-03-01T04:36:26;101438.53;;;0.41;71.47
32109;BME280;18624;50.042;8.436;2023-03-01T04:38:53;101447.72;;;0.40;71.12
32109;BME280;18624;50.042;8.436;2023-03-01T04:41:22;101441.13;;;0.37;71.53
32109;BME280;18624;50.042;8.436;2023-03-01T04:43:49;101437.03;;;0.31;71.99
32109;BME280;18624;50.042;8.436;2023-03-01T04:46:17;101430.94;;;0.22;72.36
32109;BME280;18624;50.042;8.436;2023-03-01T04:48:45;101411.78;;;0.03;72.82
32109;BME280;18624;50.042;8.436;2023-03-01T04:51:11;101429.72;;;0.19;72.74
32109;BME280;18624;50.042;8.436;2023-03-01T04:53:42;101437.25;;;0.26;72.60
32109;BME280;18624;50.042;8.436;2023-03-01T04:56:09;101437.00;;;0.19;72.79
32109;BME280;18624;50.042;8.436;2023-03-01T04:58:36;101440.16;;;0.21;73.09
32109;BME280;18624;50.042;8.436;2023-03-01T05:01:11;101418.44;;;0.05;73.17
32109;BME280;18624;50.042;8.436;2023-03-01T05:03:43;101440.81;;;0.18;73.22
32109;BME280;18624;50.042;8.436;2023-03-01T05:06:12;101440.16;;;0.21;73.07
32109;BME280;18624;50.042;8.436;2023-03-01T05:08:39;101440.50;;;0.19;72.99
32109;BME280;18624;50.042;8.436;2023-03-01T05:11:06;101430.50;;;0.20;72.91
32109;BME280;18624;50.042;8.436;2023-03-01T05:13:39;101427.59;;;0.25;72.75
32109;BME280;18624;50.042;8.436;2023-03-01T05:16:07;101433.31;;;0.23;72.71
32109;BME280;18624;50.042;8.436;2023-03-01T05:18:38;101431.41;;;0.24;72.59
32109;BME280;18624;50.042;8.436;2023-03-01T05:21:10;101435.22;;;0.23;72.92
32109;BME280;18624;50.042;8.436;2023-03-01T05:23:38;101430.84;;;0.18;72.98
32109;BME280;18624;50.042;8.436;2023-03-01T05:26:05;101431.50;;;0.15;72.95
32109;BME280;18624;50.042;8.436;2023-03-01T05:28:36;101432.72;;;0.18;73.10
32109;BME280;18624;50.042;8.436;2023-03-01T05:31:04;101427.47;;;0.21;72.78
32109;BME280;18624;50.042;8.436;2023-03-01T05:33:36;101420.28;;;0.25;72.80
32109;BME280;18624;50.042;8.436;2023-03-01T05:36:05;101319.44;;;-0.40;72.74
32109;BME280;18624;50.042;8.436;2023-03-01T05:38:31;101405.53;;;0.11;72.60
32109;BME280;18624;50.042;8.436;2023-03-01T05:40:58;101417.94;;;0.24;72.40
32109;BME280;18624;50.042;8.436;2023-03-01T05:43:24;101422.19;;;0.25;72.04
32109;BME280;18624;50.042;8.436;2023-03-01T05:45:50;101418.25;;;0.22;71.80
32109;BME280;18624;50.042;8.436;2023-03-01T05:48:17;101423.53;;;0.19;71.95
32109;BME280;18624;50.042;8.436;2023-03-01T05:50:45;101409.13;;;0.15;72.01
32109;BME280;18624;50.042;8.436;2023-03-01T05:53:16;101425.53;;;0.22;71.84
32109;BME280;18624;50.042;8.436;2023-03-01T05:55:43;101424.88;;;0.25;71.82
32109;BME280;18624;50.042;8.436;2023-03-01T05:58:16;101416.53;;;0.18;71.23
32109;BME280;18624;50.042;8.436;2023-03-01T06:00:44;101420.69;;;0.15;71.59
32109;BME280;18624;50.042;8.436;2023-03-01T06:03:12;101431.41;;;0.24;71.34
32109;BME280;18624;50.042;8.436;2023-03-01T06:05:39;101423.09;;;0.29;71.58
32109;BME280;18624;50.042;8.436;2023-03-01T06:08:07;101418.50;;;0.30;71.52
32109;BME280;18624;50.042;8.436;2023-03-01T06:10:35;101430.19;;;0.34;71.55
32109;BME280;18624;50.042;8.436;2023-03-01T06:13:02;101420.75;;;0.28;71.60
32109;BME280;18624;50.042;8.436;2023-03-01T06:15:28;101425.34;;;0.27;70.94
32109;BME280;18624;50.042;8.436;2023-03-01T06:17:56;101430.06;;;0.30;71.09
32109;BME280;18624;50.042;8.436;2023-03-01T06:20:27;101421.53;;;0.28;71.44
32109;BME280;18624;50.042;8.436;2023-03-01T06:22:56;101422.66;;;0.27;71.04
32109;BME280;18624;50.042;8.436;2023-03-01T06:25:24;101411.97;;;0.18;71.21
32109;BME280;18624;50.042;8.436;2023-03-01T06:27:51;101376.16;;;-0.03;71.35
32109;BME280;18624;50.042;8.436;2023-03-01T06:30:22;101433.56;;;0.31;71.35
32109;BME280;18624;50.042;8.436;2023-03-01T06:32:50;101420.06;;;0.31;71.32
32109;BME280;18624;50.042;8.436;2023-03-01T06:35:17;101422.66;;;0.27;71.04
32109;BME280;18624;50.042;8.436;2023-03-01T06:37:46;101425.75;;;0.17;71.30
32109;BME280;18624;50.042;8.436;2023-03-01T06:40:13;101420.94;;;0.22;71.27
32109;BME280;18624;50.042;8.436;2023-03-01T06:42:42;101415.22;;;0.24;71.22
32109;BME280;18624;50.042;8.436;2023-03-01T06:45:10;101417.59;;;0.25;71.24
32109;BME280;18624;50.042;8.436;2023-03-01T06:47:37;101395.09;;;0.09;71.04
32109;BME280;18624;50.042;8.436;2023-03-01T06:50:03;101416.34;;;0.23;71.26
32109;BME280;18624;50.042;8.436;2023-03-01T06:52:30;101417.59;;;0.25;71.29
32109;BME280;18624;50.042;8.436;2023-03-01T06:54:57;101416.66;;;0.21;71.18
32109;BME280;18624;50.042;8.436;2023-03-01T06:57:23;101413.19;;;0.21;71.24
32109;BME280;18624;50.042;8.436;2023-03-01T06:59:50;101415.88;;;0.21;71.08
32109;BME280;18624;50.042;8.436;2023-03-01T07:02:16;101416.59;;;0.30;70.93
32109;BME280;18624;50.042;8.436;2023-03-01T07:04:43;101420.84;;;0.31;70.98
32109;BME280;18624;50.042;8.436;2023-03-01T07:07:09;101429.84;;;0.35;70.98
32109;BME280;18624;50.042;8.436;2023-03-01T07:09:36;101418.84;;;0.28;71.24
32109;BME280;18624;50.042;8.436;2023-03-01T07:12:03;101383.47;;;-0.04;71.45
32109;BME280;18624;50.042;8.436;2023-03-01T07:14:29;101417.59;;;0.25;71.61
32109;BME280;18624;50.042;8.436;2023-03-01T07:16:56;101417.72;;;0.29;71.58
32109;BME280;18624;50.042;8.436;2023-03-01T07:19:22;101394.31;;;0.21;71.23
32109;BME280;18624;50.042;8.436;2023-03-01T07:21:49;101418.75;;;0.37;71.16
32109;BME280;18624;50.042;8.436;2023-03-01T07:24:15;101409.66;;;0.41;71.05
32109;BME280;18624;50.042;8.436;2023-03-01T07:26:42;101410.88;;;0.44;71.39
32109;BME280;18624;50.042;8.436;2023-03-01T07:29:09;101418.31;;;0.47;70.51
32109;BME280;18624;50.042;8.436;2023-03-01T07:31:36;101412.34;;;0.54;70.50
32109;BME280;18624;50.042;8.436;2023-03-01T07:34:02;101413.97;;;0.55;70.68
32109;BME280;18624;50.042;8.436;2023-03-01T07:36:29;101404.72;;;0.56;70.84
32109;BME280;18624;50.042;8.436;2023-03-01T07:38:56;101397.88;;;0.58;70.44
32109;BME280;18624;50.042;8.436;2023-03-01T07:41:24;101363.56;;;0.34;71.01
32109;BME280;18624;50.042;8.436;2023-03-01T07:43:50;101398.44;;;0.64;70.26
32109;BME280;18624;50.042;8.436;2023-03-01T07:46:17;101406.75;;;0.71;70.14
32109;BME280;18624;50.042;8.436;2023-03-01T07:48:45;101390.25;;;0.72;70.48
32109;BME280;18624;50.042;8.436;2023-03-01T07:51:12;101400.72;;;0.86;69.77
32109;BME280;18624;50.042;8.436;2023-03-01T07:53:38;101402.84;;;0.93;70.28
32109;BME280;18624;50.042;8.436;2023-03-01T07:56:08;101395.06;;;1.04;69.50
32109;BME280;18624;50.042;8.436;2023-03-01T07:58:36;101396.88;;;1.12;69.14
32109;BME280;18624;50.042;8.436;2023-03-01T08:01:05;101396.31;;;1.18;68.47
32109;BME280;18624;50.042;8.436;2023-03-01T08:03:32;101406.28;;;1.30;68.02
32109;BME280;18624;50.042;8.436;2023-03-01T08:06:00;101397.41;;;1.30;67.08
32109;BME280;18624;50.042;8.436;2023-03-01T08:08:27;101370.75;;;1.16;67.29
32109;BME280;18624;50.042;8.436;2023-03-01T08:10:56;101380.88;;;1.19;67.70
32109;BME280;18624;50.042;8.436;2023-03-01T08:13:23;101393.25;;;1.32;67.26
32109;BME280;18624;50.042;8.436;2023-03-01T08:15:49;101390.41;;;1.41;66.69
32109;BME280;18624;50.042;8.436;2023-03-01T08:18:17;101394.25;;;1.40;66.75
32109;BME280;18624;50.042;8.436;2023-03-01T08:20:44;101385.81;;;1.41;66.60
32109;BME280;18624;50.042;8.436;2023-03-01T08:23:10;101386.03;;;1.36;66.24
32109;BME280;18624;50.042;8.436;2023-03-01T08:25:38;101382.06;;;1.46;66.75
32109;BME280;18624;50.042;8.436;2023-03-01T08:28:04;101273.94;;;0.90;66.17
32109;BME280;18624;50.042;8.436;2023-03-01T08:30:32;101388.53;;;1.69;66.57
32109;BME280;18624;50.042;8.436;2023-03-01T08:32:58;101391.44;;;1.76;65.48
32109;BME280;18624;50.042;8.436;2023-03-01T08:35:24;101382.97;;;1.78;64.61
32109;BME280;18624;50.042;8.436;2023-03-01T08:37:51;101377.00;;;1.85;64.12
32109;BME280;18624;50.042;8.436;2023-03-01T08:40:17;101374.13;;;1.93;64.34
32109;BME280;18624;50.042;8.436;2023-03-01T08:42:44;101377.03;;;2.00;64.58
32109;BME280;18624;50.042;8.436;2023-03-01T08:45:11;101338.53;;;1.91;62.86
32109;BME280;18624;50.042;8.436;2023-03-01T08:47:38;101361.88;;;2.12;62.34
32109;BME280;18624;50.042;8.436;2023-03-01T08:50:04;101365.28;;;2.24;62.83
32109;BME280;18624;50.042;8.436;2023-03-01T08:52:32;101329.22;;;2.05;61.32
32109;BME280;18624;50.042;8.436;2023-03-01T08:54:58;101363.56;;;2.32;61.88
32109;BME280;18624;50.042;8.436;2023-03-01T08:57:27;101370.19;;;2.35;61.51
32109;BME280;18624;50.042;8.436;2023-03-01T08:59:54;101361.47;;;2.41;61.05
32109;BME280;18624;50.042;8.436;2023-03-01T09:02:22;101356.16;;;2.45;60.43
32109;BME280;18624;50.042;8.436;2023-03-01T09:04:48;101358.59;;;2.50;60.44
32109;BME280;18624;50.042;8.436;2023-03-01T09:07:15;101366.44;;;2.55;59.49
32109;BME280;18624;50.042;8.436;2023-03-01T09:09:41;101344.69;;;2.51;59.67
32109;BME280;18624;50.042;8.436;2023-03-01T09:12:08;101337.53;;;2.59;60.03
32109;BME280;18624;50.042;8.436;2023-03-01T09:14:35;101340.84;;;2.68;60.43
32109;BME280;18624;50.042;8.436;2023-03-01T09:17:03;101342.50;;;2.73;60.32
32109;BME280;18624;50.042;8.436;2023-03-01T09:19:30;101339.19;;;2.79;60.30
32109;BME280;18624;50.042;8.436;2023-03-01T09:21:56;101348.59;;;2.86;59.70
32109;BME280;18624;50.042;8.436;2023-03-01T09:24:24;101365.22;;;2.84;59.32
32109;BME280;18624;50.042;8.436;2023-03-01T09:26:54;101346.09;;;2.77;59.27
32109;BME280;18624;50.042;8.436;2023-03-01T09:29:21;101332.13;;;2.75;59.92
32109;BME280;18624;50.042;8.436;2023-03-01T09:31:48;101318.06;;;2.69;59.98
32109;BME280;18624;50.042;8.436;2023-03-01T09:34:15;101327.63;;;2.83;59.77
32109;BME280;18624;50.042;8.436;2023-03-01T09:36:45;101321.63;;;2.89;60.09
32109;BME280;18624;50.042;8.436;2023-03-01T09:39:11;101320.88;;;2.92;59.88
32109;BME280;18624;50.042;8.436;2023-03-01T09:47:20;101316.47;;;2.84;60.55
32109;BME280;18624;50.042;8.436;2023-03-01T09:49:57;101304.59;;;2.89;60.04
32109;BME280;18624;50.042;8.436;2023-03-01T09:52:41;101310.78;;;2.89;59.85
32109;BME280;18624;50.042;8.436;2023-03-01T09:55:14;101326.84;;;2.98;59.19
32109;BME280;18624;50.042;8.436;2023-03-01T09:57:47;101311.00;;;3.00;59.73
32109;BME280;18624;50.042;8.436;2023-03-01T10:00:39;101316.63;;;3.11;59.75
32109;BME280;18624;50.042;8.436;2023-03-01T10:06:04;101301.97;;;3.12;58.58
32109;BME280;18624;50.042;8.436;2023-03-01T10:11:22;101282.50;;;3.06;58.63
32109;BME280;18624;50.042;8.436;2023-03-01T10:13:55;101205.28;;;2.58;59.86
32109;BME280;18624;50.042;8.436;2023-03-01T10:16:30;101296.94;;;3.29;59.32
32109;BME280;18624;50.042;8.436;2023-03-01T10:19:02;101303.25;;;3.37;59.64
32109;BME280;18624;50.042;8.436;2023-03-01T10:21:29;101308.91;;;3.48;58.54
32109;BME280;18624;50.042;8.436;2023-03-01T10:24:10;101277.41;;;3.20;58.95
32109;BME280;18624;50.042;8.436;2023-03-01T10:29:12;101216.69;;;2.86;58.82
32109;BME280;18624;50.042;8.436;2023-03-01T10:31:51;101298.69;;;3.41;58.39
32109;BME280;18624;50.042;8.436;2023-03-01T10:34:31;101291.00;;;3.43;58.08
32109;BME280;18624;50.042;8.436;2023-03-01T10:37:18;101293.00;;;3.46;58.74
32109;BME280;18624;50.042;8.436;2023-03-01T10:40:07;101284.84;;;3.46;58.46
32109;BME280;18624;50.042;8.436;2023-03-01T10:42:48;101280.72;;;3.52;58.11
32109;BME280;18624;50.042;8.436;2023-03-01T10:45:17;101276.50;;;3.55;58.67
32109;BME280;18624;50.042;8.436;2023-03-01T10:48:16;101270.78;;;3.60;58.60
32109;BME280;18624;50.042;8.436;2023-03-01T10:50:47;101281.00;;;3.67;58.09
32109;BME280;18624;50.042;8.436;2023-03-01T10:53:49;101265.50;;;3.67;57.61
32109;BME280;18624;50.042;8.436;2023-03-01T10:56:17;101254.25;;;3.65;57.68
32109;BME280;18624;50.042;8.436;2023-03-01T10:59:00;101250.03;;;3.68;58.26
32109;BME280;18624;50.042;8.436;2023-03-01T11:01:29;101257.16;;;3.76;57.26
32109;BME280;18624;50.042;8.436;2023-03-01T11:06:35;101249.72;;;3.73;58.20
32109;BME280;18624;50.042;8.436;2023-03-01T11:09:22;101232.91;;;3.87;57.68
32109;BME280;18624;50.042;8.436;2023-03-01T11:11:57;101231.59;;;4.00;56.98
32109;BME280;18624;50.042;8.436;2023-03-01T11:14:30;101225.81;;;4.01;56.90
32109;BME280;18624;50.042;8.436;2023-03-01T11:17:02;101218.47;;;4.02;56.91
32109;BME280;18624;50.042;8.436;2023-03-01T11:19:29;101219.91;;;3.96;56.72
32109;BME280;18624;50.042;8.436;2023-03-01T11:22:12;101238.59;;;4.01;56.47
32109;BME280;18624;50.042;8.436;2023-03-01T11:24:40;101232.13;;;4.09;57.14
32109;BME280;18624;50.042;8.436;2023-03-01T11:27:34;101224.03;;;4.13;56.81
32109;BME280;18624;50.042;8.436;2023-03-01T11:30:06;101220.63;;;4.16;56.11
32109;BME280;18624;50.042;8.436;2023-03-01T11:35:28;101216.63;;;4.32;56.72
32109;BME280;18624;50.042;8.436;2023-03-01T11:40:29;101196.41;;;4.30;55.76
32109;BME280;18624;50.042;8.436;2023-03-01T11:43:02;101194.16;;;4.36;56.45
32109;BME280;18624;50.042;8.436;2023-03-01T11:45:45;101205.13;;;4.43;54.83
32109;BME280;18624;50.042;8.436;2023-03-01T11:51:23;101182.72;;;4.49;55.15
32109;BME280;18624;50.042;8.436;2023-03-01T11:54:13;101175.78;;;4.52;53.99
32109;BME280;18624;50.042;8.436;2023-03-01T11:56:46;101171.97;;;4.56;55.20
32109;BME280;18624;50.042;8.436;2023-03-01T12:02:37;101173.69;;;4.72;53.37
32109;BME280;18624;50.042;8.436;2023-03-01T12:08:28;101163.47;;;4.92;53.45
32109;BME280;18624;50.042;8.436;2023-03-01T12:14:05;101141.06;;;5.02;52.60
32109;BME280;18624;50.042;8.436;2023-03-01T12:22:31;101137.28;;;5.10;50.87
32109;BME280;18624;50.042;8.436;2023-03-01T12:27:46;101129.66;;;5.23;51.14
32109;BME280;18624;50.042;8.436;2023-03-01T12:30:21;101124.69;;;5.32;50.88
32109;BME280;18624;50.042;8.436;2023-03-01T12:32:55;101131.69;;;5.33;50.93
32109;BME280;18624;50.042;8.436;2023-03-01T12:35:40;101121.66;;;5.41;51.28
32109;BME280;18624;50.042;8.436;2023-03-01T12:38:24;101128.69;;;5.49;50.77
32109;BME280;18624;50.042;8.436;2023-03-01T12:41:21;101110.53;;;5.56;50.45
32109;BME280;18624;50.042;8.436;2023-03-01T12:44:12;101105.81;;;5.53;50.20
32109;BME280;18624;50.042;8.436;2023-03-01T12:47:05;101101.97;;;5.58;50.01
32109;BME280;18624;50.042;8.436;2023-03-01T12:49:46;101102.41;;;5.60;50.39
32109;BME280;18624;50.042;8.436;2023-03-01T12:52:22;101091.16;;;5.65;49.75
32109;BME280;18624;50.042;8.436;2023-03-01T12:54:53;101085.41;;;5.74;49.43
32109;BME280;18624;50.042;8.436;2023-03-01T12:57:27;101072.19;;;5.76;49.52
32109;BME280;18624;50.042;8.436;2023-03-01T13:00:10;101056.31;;;5.85;49.40
32109;BME280;18624;50.042;8.436;2023-03-01T13:03:03;101065.25;;;5.82;49.11
32109;BME280;18624;50.042;8.436;2023-03-01T13:08:31;101057.13;;;5.89;47.06
32109;BME280;18624;50.042;8.436;2023-03-01T13:11:05;101055.25;;;5.97;48.72
32109;BME280;18624;50.042;8.436;2023-03-01T13:13:32;101049.44;;;5.98;47.94
32109;BME280;18624;50.042;8.436;2023-03-01T13:19:15;101048.72;;;6.08;46.38
32109;BME280;18624;50.042;8.436;2023-03-01T13:21:44;101044.44;;;6.11;46.42
32109;BME280;18624;50.042;8.436;2023-03-01T13:24:39;101042.88;;;6.06;46.95
32109;BME280;18624;50.042;8.436;2023-03-01T13:29:51;101043.66;;;6.11;47.41
32109;BME280;18624;50.042;8.436;2023-03-01T13:32:23;101040.16;;;6.10;46.39
32109;BME280;18624;50.042;8.436;2023-03-01T13:37:43;100994.53;;;5.89;47.14
32109;BME280;18624;50.042;8.436;2023-03-01T13:42:57;101023.88;;;6.17;46.67
32109;BME280;18624;50.042;8.436;2023-03-01T13:45:44;100983.78;;;6.11;47.28
32109;BME280;18624;50.042;8.436;2023-03-01T13:48:22;101013.41;;;6.26;46.22
32109;BME280;18624;50.042;8.436;2023-03-01T13:50:54;101004.84;;;6.24;46.18
32109;BME280;18624;50.042;8.436;2023-03-01T13:53:25;101004.88;;;6.31;46.80
32109;BME280;18624;50.042;8.436;2023-03-01T13:55:56;101000.97;;;6.29;45.70
32109;BME280;18624;50.042;8.436;2023-03-01T13:58:30;100997.88;;;6.34;45.74
32109;BME280;18624;50.042;8.436;2023-03-01T14:01:03;101002.94;;;6.39;45.83
32109;BME280;18624;50.042;8.436;2023-03-01T14:03:32;101000.66;;;6.45;46.25
32109;BME280;18624;50.042;8.436;2023-03-01T14:06:13;101000.25;;;6.46;46.09
32109;BME280;18624;50.042;8.436;2023-03-01T14:08:45;100998.31;;;6.54;45.59
32109;BME280;18624;50.042;8.436;2023-03-01T14:11:32;100987.81;;;6.56;45.26
32109;BME280;18624;50.042;8.436;2023-03-01T14:17:02;100993.63;;;6.44;45.96
32109;BME280;18624;50.042;8.436;2023-03-01T14:19:33;100978.44;;;6.36;46.33
32109;BME280;18624;50.042;8.436;2023-03-01T14:22:20;100998.31;;;6.50;46.13
32109;BME280;18624;50.042;8.436;2023-03-01T14:24:54;100897.00;;;5.88;45.95
32109;BME280;18624;50.042;8.436;2023-03-01T14:27:23;100999.88;;;6.51;46.14
32109;BME280;18624;50.042;8.436;2023-03-01T14:30:01;101012.72;;;6.51;45.75
32109;BME280;18624;50.042;8.436;2023-03-01T14:32:30;100972.94;;;6.25;45.79